Time;durP1;ratioP1;P1;durP2;ratioP2;P2;SDS_P1;SDS_P2;PMS_P1;PMS_P2;Temp;Humidity;BMP_temperature;BMP_pressure;BME280_temperature;BME280_humidity;BME280_pressure;Samples;Min_cycle;Max_cycle;Signal;HPM_P1;HPM_P2
2022/11/20 08:20:27;;;;;;;41.17;20.85;;;;;;;;;;4985101;28;20348;-61
2022/11/20 08:26:36;;;;;;;39.88;17.27;;;;;;;;;;4985011;28;20366;-61
2022/11/20 08:32:42;;;;;;;33.75;17.10;;;;;;;;;;4983631;28;20477;-60
2022/11/20 08:38:55;;;;;;;39.70;19.77;;;;;;;;;;4984063;28;20568;-61
2022/11/20 08:45:01;;;;;;;33.85;17.23;;;;;;;;;;4984262;28;20359;-61
2022/11/20 08:51:16;;;;;;;28.88;15.20;;;;;;;;;;4983814;28;20465;-61
2022/11/20 08:53:42;;;;;;;38.97;15.52;;;;;;;;;;4981069;28;20025;-60
2022/11/20 08:56:09;;;;;;;29.10;13.35;;;;;;;;;;4981550;28;20447;-61
2022/11/20 08:58:35;;;;;;;23.30;12.25;;;;;;;;;;4980187;28;20036;-61
2022/11/20 09:01:01;;;;;;;23.02;11.82;;;;;;;;;;4980545;28;20062;-61
2022/11/20 09:03:27;;;;;;;19.27;10.65;;;;;;;;;;4981577;28;20447;-60
2022/11/20 09:06:01;;;;;;;21.80;11.82;;;;;;;;;;4980829;28;20584;-60
2022/11/20 09:08:28;;;;;;;21.00;10.27;;;;;;;;;;4981490;28;20380;-60
2022/11/20 09:10:56;;;;;;;21.25;10.38;;;;;;;;;;4980068;28;20048;-60
2022/11/20 09:13:23;;;;;;;24.55;12.60;;;;;;;;;;4982055;28;20451;-60
2022/11/20 09:16:01;;;;;;;23.40;11.75;;;;;;;;;;4979791;28;20451;-61
2022/11/20 09:18:28;;;;;;;22.75;11.02;;;;;;;;;;4980346;28;20339;-60
2022/11/20 09:20:58;;;;;;;37.92;16.52;;;;;;;;;;4979730;28;20033;-60
2022/11/20 09:23:25;;;;;;;41.10;19.95;;;;;;;;;;4981404;28;20451;-61
2022/11/20 09:25:50;;;;;;;32.40;17.80;;;;;;;;;;4980762;28;20029;-60
2022/11/20 09:28:18;;;;;;;37.50;17.80;;;;;;;;;;4980072;28;20505;-60
2022/11/20 09:30:43;;;;;;;39.63;20.42;;;;;;;;;;4979694;28;20622;-61
2022/11/20 09:33:09;;;;;;;33.08;16.27;;;;;;;;;;4979551;28;20622;-60
2022/11/20 09:35:34;;;;;;;34.28;16.83;;;;;;;;;;4979777;28;20032;-62
2022/11/20 09:38:37;;;;;;;35.15;17.13;;;;;;;;;;4979795;28;20030;-61
2022/11/20 09:41:05;;;;;;;31.60;17.23;;;;;;;;;;4947902;28;20045;-61
2022/11/20 09:44:35;;;;;;;36.83;17.00;;;;;;;;;;4979775;28;20347;-61
2022/11/20 09:47:48;;;;;;;31.13;17.33;;;;;;;;;;4965233;28;20557;-60
2022/11/20 09:50:30;;;;;;;39.50;18.15;;;;;;;;;;4979867;28;20033;-61
2022/11/20 09:53:33;;;;;;;37.75;18.10;;;;;;;;;;4980664;28;20420;-61
2022/11/20 09:56:02;;;;;;;43.03;18.45;;;;;;;;;;4978679;28;20438;-61
2022/11/20 09:58:45;;;;;;;34.03;17.60;;;;;;;;;;4961724;28;20501;-61
2022/11/20 10:01:23;;;;;;;30.55;14.13;;;;;;;;;;4961820;28;20424;-61
2022/11/20 10:04:05;;;;;;;37.47;16.30;;;;;;;;;;4978486;28;20661;-60
2022/11/20 10:06:34;;;;;;;30.75;16.42;;;;;;;;;;4979489;28;20029;-61
2022/11/20 10:09:10;;;;;;;36.90;18.88;;;;;;;;;;4980077;28;20435;-61
2022/11/20 10:12:17;;;;;;;27.15;12.95;;;;;;;;;;4960117;28;20393;-59
2022/11/20 10:15:01;;;;;;;31.92;15.85;;;;;;;;;;4981978;28;20475;-61
2022/11/20 10:18:13;;;;;;;38.78;17.02;;;;;;;;;;4985077;28;20439;-60
2022/11/20 10:21:10;;;;;;;31.40;14.75;;;;;;;;;;4957545;28;20540;-61
2022/11/20 10:24:23;;;;;;;30.70;15.43;;;;;;;;;;4974702;28;20375;-60
2022/11/20 10:27:29;;;;;;;41.10;19.00;;;;;;;;;;4976686;28;20538;-60
2022/11/20 10:30:07;;;;;;;26.88;14.10;;;;;;;;;;5002305;28;20055;-61
2022/11/20 10:32:43;;;;;;;26.10;16.93;;;;;;;;;;4467887;28;10000915;-61
2022/11/20 10:35:34;;;;;;;29.30;14.25;;;;;;;;;;4994316;28;20383;-60
2022/11/20 10:38:05;;;;;;;30.90;13.35;;;;;;;;;;4996430;28;20493;-61
2022/11/20 10:40:53;;;;;;;18.40;10.57;;;;;;;;;;4998075;28;20359;-61
2022/11/20 10:43:32;;;;;;;63.33;31.58;;;;;;;;;;4981118;28;20030;-62
2022/11/20 10:46:04;;;;;;;37.10;19.38;;;;;;;;;;4978357;28;20029;-61
2022/11/20 10:48:31;;;;;;;28.90;14.75;;;;;;;;;;4977817;28;20545;-61
2022/11/20 10:51:08;;;;;;;39.53;16.58;;;;;;;;;;4993591;28;20036;-60
2022/11/20 10:53:52;;;;;;;41.85;21.98;;;;;;;;;;4994019;28;20477;-60
2022/11/20 10:56:27;;;;;;;25.42;12.40;;;;;;;;;;4993840;28;20459;-61
2022/11/20 10:59:34;;;;;;;24.73;13.43;;;;;;;;;;4966320;28;20431;-60
2022/11/20 11:02:00;;;;;;;30.52;15.63;;;;;;;;;;4981757;28;20474;-60
2022/11/20 11:04:28;;;;;;;29.50;16.08;;;;;;;;;;4981617;28;20074;-61
2022/11/20 11:07:05;;;;;;;23.48;12.85;;;;;;;;;;4982099;28;20033;-62
2022/11/20 11:09:39;;;;;;;22.48;12.32;;;;;;;;;;4965044;28;20473;-60
2022/11/20 11:12:11;;;;;;;14.10;8.07;;;;;;;;;;4964807;28;20344;-61
2022/11/20 11:14:46;;;;;;;17.73;9.70;;;;;;;;;;4971911;28;20543;-62
2022/11/20 11:17:32;;;;;;;15.25;7.57;;;;;;;;;;4961615;28;20088;-61
2022/11/20 11:20:11;;;;;;;13.85;7.53;;;;;;;;;;4961257;28;20364;-61
2022/11/20 11:22:58;;;;;;;17.10;9.35;;;;;;;;;;4961291;28;20424;-60
2022/11/20 11:25:36;;;;;;;15.75;8.73;;;;;;;;;;4961248;28;20445;-60
2022/11/20 11:28:24;;;;;;;16.63;9.45;;;;;;;;;;4943689;28;20352;-61
2022/11/20 11:30:50;;;;;;;17.13;8.85;;;;;;;;;;4960973;28;20460;-60
2022/11/20 11:33:30;;;;;;;16.83;9.15;;;;;;;;;;4974398;28;20363;-61
2022/11/20 11:36:01;;;;;;;19.05;10.80;;;;;;;;;;4979472;28;20491;-60
2022/11/20 11:38:29;;;;;;;20.45;9.43;;;;;;;;;;4963335;28;20312;-61
2022/11/20 11:40:57;;;;;;;18.85;9.43;;;;;;;;;;4982494;28;20427;-61
2022/11/20 11:46:19;;;;;;;18.73;9.70;;;;;;;;;;4972947;28;20539;-61
2022/11/20 11:48:58;;;;;;;18.55;10.32;;;;;;;;;;4984763;28;20412;-61
2022/11/20 11:52:03;;;;;;;18.58;9.07;;;;;;;;;;4981746;28;20342;-61
2022/11/20 11:54:30;;;;;;;14.68;8.32;;;;;;;;;;4974356;28;20116;-62
2022/11/20 11:57:01;;;;;;;24.58;12.52;;;;;;;;;;4966357;28;20439;-60
2022/11/20 12:00:08;;;;;;;23.35;11.82;;;;;;;;;;4966265;28;20483;-62
2022/11/20 12:02:48;;;;;;;26.75;13.07;;;;;;;;;;4962909;28;20390;-61
2022/11/20 12:05:13;;;;;;;27.73;13.18;;;;;;;;;;4984684;28;20425;-61
2022/11/20 12:07:50;;;;;;;22.45;12.23;;;;;;;;;;4985424;28;20028;-61
2022/11/20 12:10:47;;;;;;;19.75;11.00;;;;;;;;;;4986654;28;20343;-60
2022/11/20 12:13:34;;;;;;;31.42;14.93;;;;;;;;;;4985082;28;20443;-61
2022/11/20 12:16:13;;;;;;;27.80;14.60;;;;;;;;;;4987402;28;20482;-61
2022/11/20 12:18:41;;;;;;;28.30;16.00;;;;;;;;;;4989349;28;20143;-60
2022/11/20 12:21:23;;;;;;;28.92;16.38;;;;;;;;;;4988254;28;20383;-61
2022/11/20 12:24:12;;;;;;;30.02;14.38;;;;;;;;;;4988534;28;20459;-61
2022/11/20 12:27:26;;;;;;;31.20;14.10;;;;;;;;;;4951913;28;20571;-61
2022/11/20 12:30:12;;;;;;;29.73;13.88;;;;;;;;;;4972973;28;20051;-61
2022/11/20 12:33:03;;;;;;;29.25;13.85;;;;;;;;;;4972354;28;20600;-61
2022/11/20 12:35:58;;;;;;;27.67;13.90;;;;;;;;;;4988306;28;20501;-60
2022/11/20 12:39:15;;;;;;;29.27;14.07;;;;;;;;;;4988122;28;20523;-61
2022/11/20 12:45:34;;;;;;;34.45;15.57;;;;;;;;;;4963707;28;20387;-61
2022/11/20 12:48:21;;;;;;;39.30;19.05;;;;;;;;;;4972489;28;20494;-60
2022/11/20 12:51:08;;;;;;;39.00;18.95;;;;;;;;;;4988457;28;20466;-61
2022/11/20 12:54:09;;;;;;;31.55;14.55;;;;;;;;;;4988383;28;20033;-60
2022/11/20 12:57:32;;;;;;;20.88;12.10;;;;;;;;;;4988117;28;20432;-60
2022/11/20 13:00:07;;;;;;;30.77;15.80;;;;;;;;;;4984317;28;20368;-60
2022/11/20 13:03:24;;;;;;;32.60;15.32;;;;;;;;;;4987881;28;20562;-59
2022/11/20 13:06:18;;;;;;;22.27;11.65;;;;;;;;;;4987747;28;20324;-61
2022/11/20 13:08:56;;;;;;;21.05;11.25;;;;;;;;;;4985736;28;20068;-59
2022/11/20 13:11:34;;;;;;;23.60;12.38;;;;;;;;;;4988340;28;20474;-60
2022/11/20 13:14:18;;;;;;;25.08;12.27;;;;;;;;;;4988767;28;20112;-60
2022/11/20 13:17:09;;;;;;;19.08;9.68;;;;;;;;;;4987759;28;20107;-60
2022/11/20 13:19:35;;;;;;;23.20;10.63;;;;;;;;;;4987537;28;20440;-59
2022/11/20 13:22:01;;;;;;;25.48;11.65;;;;;;;;;;4988056;28;20443;-60
2022/11/20 13:24:30;;;;;;;19.00;9.98;;;;;;;;;;4988267;28;20488;-60
2022/11/20 13:27:19;;;;;;;;;;;;;;;;;;4988273;28;20538;-60
2022/11/20 13:29:58;;;;;;;23.08;10.88;;;;;;;;;;4970213;28;19916;-59
2022/11/20 13:32:24;;;;;;;19.05;9.80;;;;;;;;;;4971182;28;20508;-60
2022/11/20 13:35:00;;;;;;;20.95;10.00;;;;;;;;;;4987157;28;20375;-61
2022/11/20 13:37:37;;;;;;;18.80;9.70;;;;;;;;;;4970621;28;20409;-60
2022/11/20 13:40:21;;;;;;;20.00;10.00;;;;;;;;;;4987786;28;20498;-60
2022/11/20 13:43:23;;;;;;;20.85;10.88;;;;;;;;;;4987787;28;20029;-59
2022/11/20 13:46:00;;;;;;;18.52;10.10;;;;;;;;;;4987156;28;20462;-60
2022/11/20 13:48:32;;;;;;;16.45;9.50;;;;;;;;;;4988566;28;20028;-60
2022/11/20 13:51:05;;;;;;;18.27;9.95;;;;;;;;;;4986858;28;20037;-59
2022/11/20 13:54:06;;;;;;;16.08;8.85;;;;;;;;;;4987368;28;20048;-60
2022/11/20 13:56:51;;;;;;;25.45;10.93;;;;;;;;;;4951396;28;20044;-60
2022/11/20 13:59:47;;;;;;;42.58;15.38;;;;;;;;;;4970834;28;20515;-60
2022/11/20 14:02:21;;;;;;;20.20;10.63;;;;;;;;;;4986845;28;20029;-61
2022/11/20 14:04:50;;;;;;;31.65;13.20;;;;;;;;;;4969050;28;20474;-60
2022/11/20 14:07:25;;;;;;;35.25;14.13;;;;;;;;;;4986685;28;20465;-59
2022/11/20 14:09:56;;;;;;;36.08;13.98;;;;;;;;;;4969979;28;20029;-59
2022/11/20 14:12:29;;;;;;;51.33;17.23;;;;;;;;;;4987108;28;20391;-60
2022/11/20 14:14:54;;;;;;;27.77;11.07;;;;;;;;;;4987257;28;20471;-60
2022/11/20 14:17:29;;;;;;;33.78;12.98;;;;;;;;;;4986264;28;20474;-60
2022/11/20 14:20:00;;;;;;;20.85;11.65;;;;;;;;;;4986554;28;20509;-60
2022/11/20 14:22:27;;;;;;;79.68;25.52;;;;;;;;;;4986690;28;20029;-61
2022/11/20 14:25:23;;;;;;;39.88;16.80;;;;;;;;;;4986734;28;20536;-60
2022/11/20 14:27:53;;;;;;;20.15;11.18;;;;;;;;;;4986671;28;20454;-59
2022/11/20 14:30:23;;;;;;;18.48;9.93;;;;;;;;;;4985905;28;20119;-60
2022/11/20 14:32:50;;;;;;;22.42;10.93;;;;;;;;;;4925176;28;20480;-60
2022/11/20 14:35:44;;;;;;;26.25;11.43;;;;;;;;;;4947414;23;20390;-60
2022/11/20 14:38:13;;;;;;;28.02;13.43;;;;;;;;;;4945436;28;20038;-61
2022/11/20 14:40:39;;;;;;;42.45;19.73;;;;;;;;;;4945771;28;20463;-60
2022/11/20 14:43:23;;;;;;;47.63;20.13;;;;;;;;;;4947072;28;20554;-60
2022/11/20 14:45:59;;;;;;;39.92;18.25;;;;;;;;;;4947413;28;20042;-60
2022/11/20 14:48:46;;;;;;;52.22;21.42;;;;;;;;;;4886146;28;20547;-59
2022/11/20 14:51:25;;;;;;;34.78;16.60;;;;;;;;;;4898192;28;20406;-60
2022/11/20 14:53:50;;;;;;;;;;;;;;;;;;4929360;28;20034;-60
2022/11/20 14:56:23;;;;;;;51.72;20.33;;;;;;;;;;4929079;28;19937;-60
2022/11/20 14:58:58;;;;;;;70.13;25.77;;;;;;;;;;4928457;28;20400;-59
2022/11/20 15:01:29;;;;;;;67.47;26.10;;;;;;;;;;4928066;28;20464;-59
2022/11/20 15:04:11;;;;;;;44.53;17.33;;;;;;;;;;4927857;28;20248;-59
2022/11/20 15:06:48;;;;;;;60.08;25.35;;;;;;;;;;4927891;28;20468;-59
2022/11/20 15:09:15;;;;;;;40.80;18.98;;;;;;;;;;4927828;28;20201;-61
2022/11/20 15:11:57;;;;;;;45.78;22.33;;;;;;;;;;5005173;23;20360;-59
2022/11/20 15:14:26;;;;;;;73.38;34.35;;;;;;;;;;4927372;28;20506;-61
2022/11/20 15:16:52;;;;;;;67.87;34.10;;;;;;;;;;4962937;28;20447;-58
2022/11/20 15:19:25;;;;;;;70.40;29.20;;;;;;;;;;4966147;28;20399;-60
2022/11/20 15:21:50;;;;;;;70.20;27.48;;;;;;;;;;4949287;28;20377;-59
2022/11/20 15:24:17;;;;;;;56.42;21.95;;;;;;;;;;4968238;28;20384;-59
2022/11/20 15:26:43;;;;;;;35.17;15.65;;;;;;;;;;4967818;28;20080;-60
2022/11/20 15:29:14;;;;;;;34.15;14.80;;;;;;;;;;4966141;28;20048;-59
2022/11/20 15:31:44;;;;;;;23.42;12.70;;;;;;;;;;4947996;28;20393;-60
2022/11/20 15:34:12;;;;;;;22.23;11.35;;;;;;;;;;4966298;28;20334;-59
2022/11/20 15:36:39;;;;;;;21.85;11.15;;;;;;;;;;4966171;28;20443;-59
2022/11/20 15:39:06;;;;;;;23.05;11.88;;;;;;;;;;4966832;28;20431;-59
2022/11/20 15:41:33;;;;;;;24.00;12.55;;;;;;;;;;4966205;28;20041;-59
2022/11/20 15:43:58;;;;;;;26.40;12.70;;;;;;;;;;4966015;28;20417;-59
2022/11/20 15:46:28;;;;;;;24.83;14.15;;;;;;;;;;4967136;28;20383;-60
2022/11/20 15:48:56;;;;;;;28.52;14.38;;;;;;;;;;4921728;28;20455;-60
2022/11/20 15:51:30;;;;;;;30.25;15.20;;;;;;;;;;4949185;28;20370;-59
2022/11/20 15:53:56;;;;;;;47.50;20.48;;;;;;;;;;4970120;28;20477;-59
2022/11/20 15:56:23;;;;;;;45.10;19.60;;;;;;;;;;4969656;28;20360;-60
2022/11/20 15:58:48;;;;;;;40.95;20.73;;;;;;;;;;4969758;28;20489;-59
2022/11/20 16:01:18;;;;;;;42.42;18.73;;;;;;;;;;4969687;28;20563;-61
2022/11/20 16:03:44;;;;;;;40.85;19.02;;;;;;;;;;4925132;28;20566;-60
2022/11/20 16:06:10;;;;;;;39.00;18.48;;;;;;;;;;4968692;28;20060;-59
2022/11/20 16:08:35;;;;;;;35.15;17.00;;;;;;;;;;4969680;28;20038;-60
2022/11/20 16:11:01;;;;;;;35.33;18.00;;;;;;;;;;4969017;28;20483;-60
2022/11/20 16:16:30;;;;;;;37.15;18.13;;;;;;;;;;4969388;28;20508;-60
2022/11/20 16:18:57;;;;;;;42.40;19.23;;;;;;;;;;4969501;28;20486;-59
2022/11/20 16:21:31;;;;;;;39.72;19.42;;;;;;;;;;4970473;28;20339;-59
2022/11/20 16:24:03;;;;;;;40.65;19.92;;;;;;;;;;4969477;28;20033;-59
2022/11/20 16:26:29;;;;;;;43.10;20.85;;;;;;;;;;4969257;28;20030;-59
2022/11/20 16:28:55;;;;;;;43.97;20.63;;;;;;;;;;4967362;28;20527;-59
2022/11/20 16:31:21;;;;;;;42.22;21.33;;;;;;;;;;4968868;28;20466;-59
2022/11/20 16:33:52;;;;;;;43.67;21.35;;;;;;;;;;4968719;28;20463;-59
2022/11/20 16:36:20;;;;;;;45.70;20.48;;;;;;;;;;4968812;28;20053;-59
2022/11/20 16:38:46;;;;;;;40.65;19.55;;;;;;;;;;4968964;28;20037;-59
2022/11/20 16:41:14;;;;;;;41.20;20.42;;;;;;;;;;4968861;28;20462;-59
2022/11/20 16:43:47;;;;;;;46.95;21.00;;;;;;;;;;4618156;28;10000753;-60
2022/11/20 16:46:21;;;;;;;41.85;21.38;;;;;;;;;;4960733;28;20111;-59
2022/11/20 16:48:56;;;;;;;39.88;19.13;;;;;;;;;;4968482;28;20048;-59
2022/11/20 16:51:23;;;;;;;35.40;18.20;;;;;;;;;;4969176;28;20502;-60
2022/11/20 16:53:52;;;;;;;36.15;17.77;;;;;;;;;;4970111;28;20436;-59
2022/11/20 16:56:21;;;;;;;35.45;17.98;;;;;;;;;;4833692;28;20537;-59
2022/11/20 16:58:49;;;;;;;36.35;17.77;;;;;;;;;;4932188;28;20501;-59
2022/11/20 17:01:20;;;;;;;37.97;20.38;;;;;;;;;;4912786;28;20509;-60
2022/11/20 17:03:53;;;;;;;38.25;18.92;;;;;;;;;;4966892;28;20474;-59
2022/11/20 17:06:23;;;;;;;33.78;18.40;;;;;;;;;;4967565;28;20091;-61
2022/11/20 17:08:48;;;;;;;36.88;18.25;;;;;;;;;;4969170;28;20037;-59
2022/11/20 17:11:18;;;;;;;37.83;18.60;;;;;;;;;;4966900;28;20459;-59
2022/11/20 17:13:44;;;;;;;;;;;;;;;;;;4968319;28;20038;-59
2022/11/20 17:16:13;;;;;;;39.50;20.13;;;;;;;;;;4968820;28;20341;-59
2022/11/20 17:18:39;;;;;;;;;;;;;;;;;;4969415;28;20379;-60
2022/11/20 17:21:06;;;;;;;36.22;17.77;;;;;;;;;;4968794;28;19913;-59
2022/11/20 17:23:38;;;;;;;38.25;19.80;;;;;;;;;;4968241;28;20030;-59
2022/11/20 17:26:13;;;;;;;37.40;19.08;;;;;;;;;;4968958;28;20053;-59
2022/11/20 17:28:40;;;;;;;40.95;19.48;;;;;;;;;;4912744;28;20399;-59
2022/11/20 17:31:15;;;;;;;42.40;20.45;;;;;;;;;;4967913;28;20448;-60
2022/11/20 17:33:43;;;;;;;48.75;22.90;;;;;;;;;;4950760;28;20446;-60
2022/11/20 17:36:12;;;;;;;61.90;28.27;;;;;;;;;;4968032;28;20372;-59
2022/11/20 17:38:37;;;;;;;101.93;43.13;;;;;;;;;;4967820;28;20578;-60
2022/11/20 17:41:07;;;;;;;125.43;44.25;;;;;;;;;;4967739;28;20325;-60
2022/11/20 17:43:35;;;;;;;171.90;56.10;;;;;;;;;;4967653;28;20517;-61
2022/11/20 17:46:05;;;;;;;131.55;50.05;;;;;;;;;;4967342;28;20462;-61
2022/11/20 17:48:32;;;;;;;109.30;44.17;;;;;;;;;;4967922;28;20348;-60
2022/11/20 17:51:04;;;;;;;90.60;40.45;;;;;;;;;;4968002;28;20053;-60
2022/11/20 17:53:35;;;;;;;48.08;22.67;;;;;;;;;;4951854;28;20456;-59
2022/11/20 17:58:45;;;;;;;32.60;17.67;;;;;;;;;;4821084;28;20065;-59
2022/11/20 18:01:10;;;;;;;34.85;18.10;;;;;;;;;;4888830;28;20045;-60
2022/11/20 18:03:36;;;;;;;35.03;18.33;;;;;;;;;;4948511;28;20432;-59
2022/11/20 18:06:20;;;;;;;38.38;18.85;;;;;;;;;;4947796;28;20388;-59
2022/11/20 18:08:47;;;;;;;51.05;21.98;;;;;;;;;;4947310;28;20033;-60
2022/11/20 18:11:16;;;;;;;55.53;26.10;;;;;;;;;;4947059;28;20467;-60
2022/11/20 18:16:30;;;;;;;59.25;27.20;;;;;;;;;;4947286;28;20514;-60
2022/11/20 18:18:57;;;;;;;64.63;34.38;;;;;;;;;;4948405;28;20056;-59
2022/11/20 18:21:25;;;;;;;62.03;31.17;;;;;;;;;;4947726;28;20415;-59
2022/11/20 18:23:51;;;;;;;53.72;25.17;;;;;;;;;;4947342;28;20403;-59
2022/11/20 18:26:18;;;;;;;40.38;20.33;;;;;;;;;;4947137;28;20052;-59
2022/11/20 18:28:44;;;;;;;39.97;19.30;;;;;;;;;;4947573;28;20363;-59
2022/11/20 18:31:10;;;;;;;44.28;22.35;;;;;;;;;;4947984;28;20030;-59
2022/11/20 18:33:37;;;;;;;48.58;23.33;;;;;;;;;;4946885;28;20460;-59
2022/11/20 18:36:21;;;;;;;57.65;29.70;;;;;;;;;;4947098;28;20444;-59
2022/11/20 18:38:50;;;;;;;96.95;38.88;;;;;;;;;;4946909;28;20371;-59
2022/11/20 18:46:58;;;;;;;98.15;39.80;;;;;;;;;;4934659;28;20474;-59
2022/11/20 18:49:24;;;;;;;95.07;37.72;;;;;;;;;;4947028;28;20480;-60
2022/11/20 18:51:50;;;;;;;107.10;43.05;;;;;;;;;;4947214;28;20480;-60
2022/11/20 18:54:15;;;;;;;70.20;31.40;;;;;;;;;;4946805;28;20348;-59
2022/11/20 18:56:40;;;;;;;80.15;34.45;;;;;;;;;;4947014;28;20458;-60
2022/11/20 18:59:09;;;;;;;80.72;36.80;;;;;;;;;;4946939;28;20033;-60
2022/11/20 19:01:35;;;;;;;102.23;46.03;;;;;;;;;;4947341;28;20428;-59
2022/11/20 19:04:06;;;;;;;99.15;43.50;;;;;;;;;;4947014;28;20346;-58
2022/11/20 19:06:32;;;;;;;67.20;32.78;;;;;;;;;;4946804;28;20436;-60
2022/11/20 19:08:57;;;;;;;85.00;36.97;;;;;;;;;;4946616;28;20360;-59
2022/11/20 19:11:23;;;;;;;74.60;35.63;;;;;;;;;;4947142;28;20042;-59
2022/11/20 19:13:48;;;;;;;77.28;35.33;;;;;;;;;;4946579;28;20143;-59
2022/11/20 19:16:17;;;;;;;75.32;32.65;;;;;;;;;;4947052;28;20326;-59
2022/11/20 19:18:43;;;;;;;;;;;;;;;;;;4947431;28;20391;-59
2022/11/20 19:21:15;;;;;;;62.83;29.20;;;;;;;;;;4946859;28;20255;-59
2022/11/20 19:23:41;;;;;;;56.40;28.75;;;;;;;;;;4946518;28;20643;-59
2022/11/20 19:26:07;;;;;;;56.38;26.67;;;;;;;;;;4946327;28;20644;-59
2022/11/20 19:28:35;;;;;;;66.43;29.88;;;;;;;;;;4946654;28;20125;-60
2022/11/20 19:31:08;;;;;;;59.00;30.88;;;;;;;;;;4947082;28;20383;-61
2022/11/20 19:33:35;;;;;;;100.82;42.88;;;;;;;;;;4947064;28;20877;-59
2022/11/20 19:36:37;;;;;;;90.90;38.28;;;;;;;;;;4924611;28;20420;-59
2022/11/20 19:39:05;;;;;;;91.45;37.40;;;;;;;;;;4890672;28;20384;-60
2022/11/20 19:41:32;;;;;;;91.72;39.92;;;;;;;;;;4946741;28;20080;-59
2022/11/20 19:44:03;;;;;;;89.25;38.10;;;;;;;;;;4946566;28;20459;-59
2022/11/20 19:46:31;;;;;;;79.93;34.42;;;;;;;;;;4946728;28;20340;-59
2022/11/20 19:48:57;;;;;;;72.85;35.00;;;;;;;;;;4946489;28;20113;-59
2022/11/20 19:51:26;;;;;;;80.55;38.45;;;;;;;;;;4946456;28;20456;-59
2022/11/20 19:53:51;;;;;;;81.15;36.40;;;;;;;;;;4947042;28;20582;-59
2022/11/20 19:56:17;;;;;;;78.47;36.33;;;;;;;;;;4922405;28;20452;-59
2022/11/20 19:58:43;;;;;;;96.50;39.10;;;;;;;;;;4946817;28;20478;-59
2022/11/20 20:01:18;;;;;;;94.65;39.30;;;;;;;;;;4946679;28;20423;-59
2022/11/20 20:03:45;;;;;;;85.43;39.83;;;;;;;;;;4948387;28;20356;-59
2022/11/20 20:06:14;;;;;;;100.30;42.20;;;;;;;;;;4945964;28;20460;-60
2022/11/20 20:08:40;;;;;;;;;;;;;;;;;;4946499;28;20072;-59
2022/11/20 20:11:18;;;;;;;95.15;40.90;;;;;;;;;;4941348;28;20332;-60
2022/11/20 20:13:45;;;;;;;92.57;39.38;;;;;;;;;;4927241;28;20034;-60
2022/11/20 20:16:20;;;;;;;74.90;35.35;;;;;;;;;;4927127;28;20354;-60
2022/11/20 20:18:46;;;;;;;87.60;35.50;;;;;;;;;;4927568;28;20376;-60
2022/11/20 20:21:15;;;;;;;87.57;38.25;;;;;;;;;;4926716;28;20392;-60
2022/11/20 20:23:42;;;;;;;;;;;;;;;;;;4927216;28;20057;-59
2022/11/20 20:26:09;;;;;;;101.53;42.00;;;;;;;;;;4926510;28;20315;-59
2022/11/20 20:28:36;;;;;;;162.13;58.55;;;;;;;;;;4927232;28;20412;-60
2022/11/20 20:31:11;;;;;;;140.13;52.75;;;;;;;;;;4926246;28;20471;-59
2022/11/20 20:33:38;;;;;;;130.90;48.28;;;;;;;;;;4927560;28;20483;-59
2022/11/20 20:36:10;;;;;;;118.28;45.08;;;;;;;;;;4927033;28;20453;-59
2022/11/20 20:38:36;;;;;;;116.78;45.60;;;;;;;;;;4926988;28;20034;-59
2022/11/20 20:41:02;;;;;;;112.72;45.70;;;;;;;;;;4931386;28;20451;-60
2022/11/20 20:43:28;;;;;;;122.60;46.08;;;;;;;;;;4930199;28;20172;-59
2022/11/20 20:45:54;;;;;;;113.93;45.55;;;;;;;;;;4930014;28;20333;-59
2022/11/20 20:48:22;;;;;;;109.00;46.00;;;;;;;;;;4929859;28;20400;-59
2022/11/20 20:51:01;;;;;;;122.40;46.30;;;;;;;;;;4929713;28;20448;-59
2022/11/20 20:53:30;;;;;;;106.68;43.05;;;;;;;;;;4929815;28;20034;-60
2022/11/20 20:56:00;;;;;;;95.32;40.00;;;;;;;;;;4930924;28;20405;-59
2022/11/20 20:58:28;;;;;;;97.70;39.05;;;;;;;;;;4931693;28;20459;-59
2022/11/20 21:01:05;;;;;;;92.72;39.47;;;;;;;;;;4929818;28;20345;-59
2022/11/20 21:03:34;;;;;;;95.53;38.72;;;;;;;;;;4913734;28;20483;-59
2022/11/20 21:06:01;;;;;;;86.78;38.35;;;;;;;;;;4929415;28;20096;-59
2022/11/20 21:08:27;;;;;;;98.88;38.88;;;;;;;;;;4929592;28;20399;-59
2022/11/20 21:11:11;;;;;;;108.65;43.40;;;;;;;;;;4929462;28;20493;-59
2022/11/20 21:13:39;;;;;;;96.78;38.30;;;;;;;;;;4929407;28;20034;-59
2022/11/20 21:16:05;;;;;;;150.43;50.50;;;;;;;;;;4870554;28;20384;-59
2022/11/20 21:18:31;;;;;;;157.98;51.95;;;;;;;;;;4928790;28;20337;-60
2022/11/20 21:23:45;;;;;;;208.55;79.72;;;;;;;;;;4950024;28;20391;-59
2022/11/20 21:26:10;;;;;;;162.38;64.47;;;;;;;;;;4949281;28;20436;-60
2022/11/20 21:28:37;;;;;;;162.43;64.35;;;;;;;;;;4948841;28;20502;-60
2022/11/20 21:31:07;;;;;;;137.10;56.08;;;;;;;;;;4948430;28;20371;-59
2022/11/20 21:33:44;;;;;;;139.23;55.60;;;;;;;;;;4948281;28;20356;-60
2022/11/20 21:36:13;;;;;;;200.30;74.25;;;;;;;;;;4947908;28;20380;-59
2022/11/20 21:38:39;;;;;;;172.95;66.78;;;;;;;;;;4948909;28;20440;-59
2022/11/20 21:41:07;;;;;;;172.18;65.43;;;;;;;;;;4950086;28;20121;-60
2022/11/20 21:43:33;;;;;;;149.73;58.45;;;;;;;;;;4948507;28;20470;-59
2022/11/20 21:46:10;;;;;;;171.57;65.90;;;;;;;;;;4948817;28;20053;-59
2022/11/20 21:48:38;;;;;;;146.02;58.50;;;;;;;;;;4948033;28;20459;-59
2022/11/20 21:51:26;;;;;;;123.15;49.10;;;;;;;;;;4947946;28;20387;-59
2022/11/20 21:53:53;;;;;;;98.33;42.90;;;;;;;;;;4948844;28;20432;-60
2022/11/20 21:56:22;;;;;;;95.10;41.10;;;;;;;;;;4948252;28;20447;-59
2022/11/20 21:58:48;;;;;;;101.88;45.25;;;;;;;;;;4948064;28;20396;-60
2022/11/20 22:01:18;;;;;;;111.22;51.00;;;;;;;;;;4947805;28;20388;-59
2022/11/20 22:03:49;;;;;;;105.60;48.70;;;;;;;;;;4947517;28;20456;-59
2022/11/20 22:06:15;;;;;;;98.25;42.47;;;;;;;;;;4948096;28;20328;-59
2022/11/20 22:08:41;;;;;;;100.35;48.53;;;;;;;;;;4948385;28;20570;-60
2022/11/20 22:11:10;;;;;;;107.70;47.78;;;;;;;;;;4947873;28;20448;-59
2022/11/20 22:16:19;;;;;;;106.70;47.13;;;;;;;;;;4948525;28;19995;-58
2022/11/20 22:18:54;;;;;;;110.70;50.17;;;;;;;;;;4947304;28;20467;-59
2022/11/20 22:21:24;;;;;;;114.63;49.40;;;;;;;;;;4948094;28;20391;-59
2022/11/20 22:23:49;;;;;;;129.43;55.03;;;;;;;;;;4947974;28;20399;-59
2022/11/20 22:26:18;;;;;;;112.20;49.10;;;;;;;;;;4949704;28;20395;-59
2022/11/20 22:28:48;;;;;;;98.45;43.20;;;;;;;;;;4947658;28;20363;-59
2022/11/20 22:31:15;;;;;;;101.38;45.00;;;;;;;;;;4947260;28;20065;-60
2022/11/20 22:33:40;;;;;;;108.43;45.75;;;;;;;;;;4948559;28;20421;-61
2022/11/20 22:36:09;;;;;;;103.55;46.42;;;;;;;;;;4947754;28;20487;-59
2022/11/20 22:38:36;;;;;;;91.20;40.92;;;;;;;;;;4947499;28;20436;-60
2022/11/20 22:41:11;;;;;;;100.88;44.72;;;;;;;;;;4947590;28;20326;-59
2022/11/20 22:43:38;;;;;;;127.97;50.75;;;;;;;;;;4947656;28;20574;-60
2022/11/20 22:46:18;;;;;;;122.85;49.38;;;;;;;;;;4947185;28;20633;-59
2022/11/20 22:48:55;;;;;;;94.40;41.42;;;;;;;;;;4948806;28;20538;-60
2022/11/20 22:51:28;;;;;;;293.52;90.85;;;;;;;;;;4947993;28;20380;-59
2022/11/20 22:53:54;;;;;;;113.88;44.30;;;;;;;;;;4947529;28;20451;-60
2022/11/20 22:56:20;;;;;;;99.15;42.30;;;;;;;;;;4947266;28;20369;-60
2022/11/20 22:58:48;;;;;;;85.25;35.90;;;;;;;;;;4946641;28;20712;-59
2022/11/20 23:01:32;;;;;;;145.77;56.53;;;;;;;;;;4947887;28;20470;-59
2022/11/20 23:04:01;;;;;;;104.40;42.38;;;;;;;;;;4946727;28;20360;-60
2022/11/20 23:06:27;;;;;;;76.57;36.92;;;;;;;;;;4947434;28;20526;-59
2022/11/20 23:08:53;;;;;;;81.78;36.95;;;;;;;;;;4947202;28;20448;-61
2022/11/20 23:11:23;;;;;;;76.93;36.53;;;;;;;;;;4946974;28;20133;-60
2022/11/20 23:14:00;;;;;;;107.00;45.25;;;;;;;;;;4946680;28;20475;-59
2022/11/20 23:16:28;;;;;;;123.63;50.47;;;;;;;;;;4946466;28;20480;-60
2022/11/20 23:19:02;;;;;;;94.68;40.63;;;;;;;;;;4946792;28;20405;-60
2022/11/20 23:21:28;;;;;;;84.15;36.97;;;;;;;;;;4947125;28;20057;-60
2022/11/20 23:23:55;;;;;;;101.35;41.58;;;;;;;;;;4946820;28;20427;-59
2022/11/20 23:26:25;;;;;;;111.45;44.60;;;;;;;;;;4946702;28;20405;-59
2022/11/20 23:28:53;;;;;;;107.88;43.80;;;;;;;;;;4946412;28;20037;-59
2022/11/20 23:31:18;;;;;;;119.45;48.63;;;;;;;;;;4946259;28;20395;-60
2022/11/20 23:33:45;;;;;;;110.95;47.03;;;;;;;;;;4946416;28;20332;-60
2022/11/20 23:36:12;;;;;;;106.45;44.72;;;;;;;;;;4947114;28;20029;-60
2022/11/20 23:38:38;;;;;;;127.97;51.97;;;;;;;;;;4946561;28;20336;-59
2022/11/20 23:41:04;;;;;;;140.35;54.47;;;;;;;;;;4946560;28;20344;-59
2022/11/20 23:43:30;;;;;;;141.43;55.78;;;;;;;;;;4947685;28;20421;-60
2022/11/20 23:45:58;;;;;;;136.32;54.05;;;;;;;;;;4946273;28;20316;-60
2022/11/20 23:48:31;;;;;;;128.43;50.30;;;;;;;;;;4947395;28;20329;-60
2022/11/20 23:50:56;;;;;;;124.80;48.35;;;;;;;;;;4947190;28;20498;-59
2022/11/20 23:53:23;;;;;;;127.70;52.13;;;;;;;;;;4946784;28;20029;-60
2022/11/20 23:55:57;;;;;;;119.60;49.13;;;;;;;;;;4946299;28;20423;-59
2022/11/20 23:58:25;;;;;;;124.85;49.38;;;;;;;;;;4946213;28;20508;-60
